sensor_id;sensor_type;location;lat;lon;timestamp;pressure;altitude;pressure_sealevel;temperature;humidity
8334;BME280;4204;43.004;23.052;2024-02-14T00:02:16;93551.97;;;4.31;83.47
8334;BME280;4204;43.004;23.052;2024-02-14T00:04:41;93548.97;;;4.27;83.46
8334;BME280;4204;43.004;23.052;2024-02-14T00:07:06;93560.03;;;4.20;83.03
8334;BME280;4204;43.004;23.052;2024-02-14T00:09:32;93560.47;;;4.23;83.33
8334;BME280;4204;43.004;23.052;2024-02-14T00:11:57;93565.06;;;4.28;83.58
8334;BME280;4204;43.004;23.052;2024-02-14T00:14:22;93553.19;;;4.20;83.32
8334;BME280;4204;43.004;23.052;2024-02-14T00:16:48;93552.03;;;4.23;82.66
8334;BME280;4204;43.004;23.052;2024-02-14T00:19:13;93561.50;;;4.14;83.75
8334;BME280;4204;43.004;23.052;2024-02-14T00:21:39;93560.03;;;4.20;83.45
8334;BME280;4204;43.004;23.052;2024-02-14T00:24:05;93563.72;;;4.17;83.39
8334;BME280;4204;43.004;23.052;2024-02-14T00:26:31;93577.72;;;4.21;82.98
8334;BME280;4204;43.004;23.052;2024-02-14T00:28:56;93577.22;;;4.26;82.25
8334;BME280;4204;43.004;23.052;2024-02-14T00:31:22;93573.47;;;4.13;83.19
8334;BME280;4204;43.004;23.052;2024-02-14T00:33:47;93564.06;;;4.14;82.85
8334;BME280;4204;43.004;23.052;2024-02-14T00:36:13;93569.00;;;4.15;82.96
8334;BME280;4204;43.004;23.052;2024-02-14T00:38:38;93571.66;;;4.22;83.11
8334;BME280;4204;43.004;23.052;2024-02-14T00:41:04;93567.00;;;4.26;81.84
8334;BME280;4204;43.004;23.052;2024-02-14T00:43:29;93565.59;;;4.23;81.49
8334;BME280;4204;43.004;23.052;2024-02-14T00:45:55;93571.38;;;4.17;82.53
8334;BME280;4204;43.004;23.052;2024-02-14T00:48:22;93574.88;;;4.16;81.49
8334;BME280;4204;43.004;23.052;2024-02-14T00:50:47;93561.84;;;4.11;82.51
8334;BME280;4204;43.004;23.052;2024-02-14T00:53:13;93543.16;;;3.96;81.86
8334;BME280;4204;43.004;23.052;2024-02-14T00:55:58;93557.31;;;3.98;82.44
8334;BME280;4204;43.004;23.052;2024-02-14T00:58:23;93567.97;;;4.02;82.16
8334;BME280;4204;43.004;23.052;2024-02-14T01:00:49;93566.84;;;4.04;83.64
8334;BME280;4204;43.004;23.052;2024-02-14T01:03:14;93570.00;;;4.06;83.60
8334;BME280;4204;43.004;23.052;2024-02-14T01:05:41;93564.28;;;4.04;82.34
8334;BME280;4204;43.004;23.052;2024-02-14T01:08:07;93568.88;;;4.09;82.13
8334;BME280;4204;43.004;23.052;2024-02-14T01:10:33;93571.78;;;4.06;81.90
8334;BME280;4204;43.004;23.052;2024-02-14T01:12:58;93580.31;;;4.13;82.79
8334;BME280;4204;43.004;23.052;2024-02-14T01:15:24;93573.19;;;4.08;82.84
8334;BME280;4204;43.004;23.052;2024-02-14T01:17:49;93575.22;;;4.13;82.06
8334;BME280;4204;43.004;23.052;2024-02-14T01:20:15;93577.16;;;4.11;82.53
8334;BME280;4204;43.004;23.052;2024-02-14T01:22:40;93563.16;;;4.07;82.82
8334;BME280;4204;43.004;23.052;2024-02-14T01:25:06;93578.56;;;4.13;81.78
8334;BME280;4204;43.004;23.052;2024-02-14T01:27:32;93580.66;;;4.10;82.43
8334;BME280;4204;43.004;23.052;2024-02-14T01:29:57;93602.31;;;4.14;82.43
8334;BME280;4204;43.004;23.052;2024-02-14T01:32:23;93584.97;;;4.09;81.98
8334;BME280;4204;43.004;23.052;2024-02-14T01:34:48;93576.69;;;4.07;82.60
8334;BME280;4204;43.004;23.052;2024-02-14T01:37:14;93584.19;;;4.09;81.44
8334;BME280;4204;43.004;23.052;2024-02-14T01:39:40;93578.69;;;3.97;81.38
8334;BME280;4204;43.004;23.052;2024-02-14T01:42:05;93569.56;;;4.03;81.23
8334;BME280;4204;43.004;23.052;2024-02-14T01:44:33;93581.19;;;4.05;81.19
8334;BME280;4204;43.004;23.052;2024-02-14T01:46:59;93566.22;;;4.02;81.69
8334;BME280;4204;43.004;23.052;2024-02-14T01:49:25;93566.22;;;4.02;81.15
8334;BME280;4204;43.004;23.052;2024-02-14T01:51:55;93561.63;;;3.98;81.83
8334;BME280;4204;43.004;23.052;2024-02-14T01:54:22;93574.72;;;3.95;82.02
8334;BME280;4204;43.004;23.052;2024-02-14T01:56:47;93576.53;;;3.86;81.48
8334;BME280;4204;43.004;23.052;2024-02-14T01:59:13;93581.44;;;3.88;81.27
8334;BME280;4204;43.004;23.052;2024-02-14T02:01:39;93577.31;;;3.87;81.90
8334;BME280;4204;43.004;23.052;2024-02-14T02:04:05;93575.72;;;3.86;81.93
8334;BME280;4204;43.004;23.052;2024-02-14T02:06:30;93569.66;;;3.87;82.62
8334;BME280;4204;43.004;23.052;2024-02-14T02:08:56;93579.06;;;3.86;82.30
8334;BME280;4204;43.004;23.052;2024-02-14T02:11:21;93577.94;;;3.89;83.08
8334;BME280;4204;43.004;23.052;2024-02-14T02:13:47;93560.47;;;3.77;82.34
8334;BME280;4204;43.004;23.052;2024-02-14T02:16:12;93574.75;;;3.87;81.89
8334;BME280;4204;43.004;23.052;2024-02-14T02:18:40;93584.28;;;3.93;82.67
8334;BME280;4204;43.004;23.052;2024-02-14T02:21:06;93581.56;;;3.94;82.47
8334;BME280;4204;43.004;23.052;2024-02-14T02:23:35;93587.41;;;4.03;82.33
8334;BME280;4204;43.004;23.052;2024-02-14T02:26:01;93591.72;;;4.02;81.65
8334;BME280;4204;43.004;23.052;2024-02-14T02:28:27;93599.81;;;4.06;82.59
8334;BME280;4204;43.004;23.052;2024-02-14T02:30:52;93594.72;;;4.06;81.80
8334;BME280;4204;43.004;23.052;2024-02-14T02:33:19;93598.25;;;4.05;81.83
8334;BME280;4204;43.004;23.052;2024-02-14T02:35:44;93593.19;;;3.97;82.20
8334;BME280;4204;43.004;23.052;2024-02-14T02:38:11;93605.31;;;3.95;82.68
8334;BME280;4204;43.004;23.052;2024-02-14T02:40:36;93595.28;;;3.93;82.11
8334;BME280;4204;43.004;23.052;2024-02-14T02:43:02;93582.06;;;3.90;82.83
8334;BME280;4204;43.004;23.052;2024-02-14T02:45:28;93593.53;;;3.94;81.93
8334;BME280;4204;43.004;23.052;2024-02-14T02:47:53;93593.81;;;3.99;81.95
8334;BME280;4204;43.004;23.052;2024-02-14T02:50:20;93593.03;;;3.98;81.50
8334;BME280;4204;43.004;23.052;2024-02-14T02:52:47;93594.44;;;4.01;81.99
8334;BME280;4204;43.004;23.052;2024-02-14T02:55:13;93594.94;;;3.96;80.66
8334;BME280;4204;43.004;23.052;2024-02-14T02:57:41;93607.66;;;4.04;81.88
8334;BME280;4204;43.004;23.052;2024-02-14T03:00:06;93604.97;;;3.98;81.33
8334;BME280;4204;43.004;23.052;2024-02-14T03:02:38;93605.94;;;3.97;80.23
8334;BME280;4204;43.004;23.052;2024-02-14T03:05:07;93608.78;;;4.02;79.74
8334;BME280;4204;43.004;23.052;2024-02-14T03:07:35;93609.91;;;3.99;81.68
8334;BME280;4204;43.004;23.052;2024-02-14T03:10:01;93616.59;;;4.00;79.71
8334;BME280;4204;43.004;23.052;2024-02-14T03:12:29;93602.09;;;4.01;81.02
8334;BME280;4204;43.004;23.052;2024-02-14T03:14:56;93609.06;;;4.07;81.18
8334;BME280;4204;43.004;23.052;2024-02-14T03:17:23;93613.72;;;4.03;79.03
8334;BME280;4204;43.004;23.052;2024-02-14T03:19:49;93618.31;;;4.08;79.14
8334;BME280;4204;43.004;23.052;2024-02-14T03:22:17;93622.78;;;4.06;79.73
8334;BME280;4204;43.004;23.052;2024-02-14T03:24:44;93626.28;;;4.05;79.81
8334;BME280;4204;43.004;23.052;2024-02-14T03:27:12;93643.97;;;4.06;80.30
8334;BME280;4204;43.004;23.052;2024-02-14T03:29:37;93639.38;;;4.02;79.64
8334;BME280;4204;43.004;23.052;2024-02-14T03:32:05;93637.34;;;3.97;79.87
8334;BME280;4204;43.004;23.052;2024-02-14T03:34:31;93649.41;;;4.03;79.22
8334;BME280;4204;43.004;23.052;2024-02-14T03:36:59;93651.16;;;4.03;80.65
8334;BME280;4204;43.004;23.052;2024-02-14T03:39:24;93656.28;;;4.03;81.13
8334;BME280;4204;43.004;23.052;2024-02-14T03:41:49;93655.03;;;3.99;80.04
8334;BME280;4204;43.004;23.052;2024-02-14T03:44:15;93656.59;;;4.00;79.42
8334;BME280;4204;43.004;23.052;2024-02-14T03:46:40;93662.16;;;4.03;79.64
8334;BME280;4204;43.004;23.052;2024-02-14T03:49:06;93666.81;;;4.00;79.40
8334;BME280;4204;43.004;23.052;2024-02-14T03:51:31;93680.19;;;4.02;79.15
8334;BME280;4204;43.004;23.052;2024-02-14T03:53:57;93675.75;;;3.96;78.37
8334;BME280;4204;43.004;23.052;2024-02-14T03:56:22;93674.16;;;3.95;79.32
8334;BME280;4204;43.004;23.052;2024-02-14T03:58:48;93674.16;;;3.95;79.29
8334;BME280;4204;43.004;23.052;2024-02-14T04:01:15;93671.28;;;3.98;78.98
8334;BME280;4204;43.004;23.052;2024-02-14T04:03:40;93682.44;;;3.97;78.53
8334;BME280;4204;43.004;23.052;2024-02-14T04:06:05;93682.09;;;4.00;78.07
8334;BME280;4204;43.004;23.052;2024-02-14T04:08:31;93685.66;;;3.91;78.16
8334;BME280;4204;43.004;23.052;2024-02-14T04:10:58;93692.34;;;3.92;79.15
8334;BME280;4204;43.004;23.052;2024-02-14T04:13:24;93694.91;;;3.92;78.93
8334;BME280;4204;43.004;23.052;2024-02-14T04:15:49;93681.19;;;3.93;78.78
8334;BME280;4204;43.004;23.052;2024-02-14T04:18:14;93688.06;;;3.84;78.80
8334;BME280;4204;43.004;23.052;2024-02-14T04:20:41;93698.75;;;3.88;78.91
8334;BME280;4204;43.004;23.052;2024-02-14T04:23:06;93688.75;;;3.78;79.95
8334;BME280;4204;43.004;23.052;2024-02-14T04:25:33;93684.59;;;3.77;79.79
8334;BME280;4204;43.004;23.052;2024-02-14T04:27:59;93688.28;;;3.74;80.13
8334;BME280;4204;43.004;23.052;2024-02-14T04:30:25;93693.03;;;3.77;79.85
8334;BME280;4204;43.004;23.052;2024-02-14T04:32:50;93699.25;;;3.67;80.39
8334;BME280;4204;43.004;23.052;2024-02-14T04:35:19;93697.22;;;3.62;79.76
8334;BME280;4204;43.004;23.052;2024-02-14T04:37:45;93693.06;;;3.61;80.29
8334;BME280;4204;43.004;23.052;2024-02-14T04:40:12;93704.88;;;3.54;80.28
8334;BME280;4204;43.004;23.052;2024-02-14T04:42:37;93707.13;;;3.49;80.50
8334;BME280;4204;43.004;23.052;2024-02-14T04:45:03;93715.41;;;3.51;80.33
8334;BME280;4204;43.004;23.052;2024-02-14T04:47:29;93707.13;;;3.49;81.02
8334;BME280;4204;43.004;23.052;2024-02-14T04:49:55;93714.44;;;3.52;80.53
8334;BME280;4204;43.004;23.052;2024-02-14T04:52:20;93710.47;;;3.49;81.54
8334;BME280;4204;43.004;23.052;2024-02-14T04:54:46;93722.41;;;3.57;80.60
8334;BME280;4204;43.004;23.052;2024-02-14T04:57:11;93725.56;;;3.59;81.83
8334;BME280;4204;43.004;23.052;2024-02-14T04:59:37;93723.66;;;3.61;81.17
8334;BME280;4204;43.004;23.052;2024-02-14T05:02:03;93728.44;;;3.64;80.92
8334;BME280;4204;43.004;23.052;2024-02-14T05:04:28;93727.63;;;3.64;81.79
8334;BME280;4204;43.004;23.052;2024-02-14T05:06:55;93738.94;;;3.61;81.46
8334;BME280;4204;43.004;23.052;2024-02-14T05:09:20;93736.91;;;3.48;82.34
8334;BME280;4204;43.004;23.052;2024-02-14T05:11:45;93748.84;;;3.48;81.96
8334;BME280;4204;43.004;23.052;2024-02-14T05:14:11;93755.22;;;3.44;81.61
8334;BME280;4204;43.004;23.052;2024-02-14T05:16:36;93746.63;;;3.37;80.45
8334;BME280;4204;43.004;23.052;2024-02-14T05:19:01;93759.22;;;3.38;81.85
8334;BME280;4204;43.004;23.052;2024-02-14T05:21:27;93763.03;;;3.34;81.79
8334;BME280;4204;43.004;23.052;2024-02-14T05:23:52;93764.16;;;3.32;82.20
8334;BME280;4204;43.004;23.052;2024-02-14T05:26:18;93771.81;;;3.32;81.20
8334;BME280;4204;43.004;23.052;2024-02-14T05:28:44;93769.25;;;3.32;81.07
8334;BME280;4204;43.004;23.052;2024-02-14T05:31:09;93777.53;;;3.34;81.03
8334;BME280;4204;43.004;23.052;2024-02-14T05:33:34;93775.31;;;3.31;80.36
8334;BME280;4204;43.004;23.052;2024-02-14T05:36:00;93784.53;;;3.32;79.93
8334;BME280;4204;43.004;23.052;2024-02-14T05:38:27;93784.88;;;3.21;81.47
8334;BME280;4204;43.004;23.052;2024-02-14T05:40:52;93788.53;;;3.18;81.25
8334;BME280;4204;43.004;23.052;2024-02-14T05:43:18;93795.22;;;3.19;81.32
8334;BME280;4204;43.004;23.052;2024-02-14T05:45:44;93803.34;;;3.14;81.65
8334;BME280;4204;43.004;23.052;2024-02-14T05:48:09;93806.66;;;3.15;81.05
8334;BME280;4204;43.004;23.052;2024-02-14T05:50:35;93814.78;;;3.18;81.84
8334;BME280;4204;43.004;23.052;2024-02-14T05:53:01;93815.09;;;3.15;81.08
8334;BME280;4204;43.004;23.052;2024-02-14T05:55:27;93814.47;;;3.13;81.75
8334;BME280;4204;43.004;23.052;2024-02-14T05:57:53;93813.19;;;3.09;80.99
8334;BME280;4204;43.004;23.052;2024-02-14T06:00:21;93823.38;;;3.17;80.02
8334;BME280;4204;43.004;23.052;2024-02-14T06:02:47;93817.34;;;3.10;81.93
8334;BME280;4204;43.004;23.052;2024-02-14T06:05:13;93831.34;;;3.14;81.99
8334;BME280;4204;43.004;23.052;2024-02-14T06:07:40;93836.59;;;3.21;80.81
8334;BME280;4204;43.004;23.052;2024-02-14T06:10:06;93831.50;;;3.21;81.02
8334;BME280;4204;43.004;23.052;2024-02-14T06:12:32;93837.38;;;3.13;79.46
8334;BME280;4204;43.004;23.052;2024-02-14T06:14:58;93835.63;;;3.14;81.16
8334;BME280;4204;43.004;23.052;2024-02-14T06:17:24;93842.50;;;3.22;79.78
8334;BME280;4204;43.004;23.052;2024-02-14T06:19:51;93827.84;;;3.07;79.88
8334;BME280;4204;43.004;23.052;2024-02-14T06:22:16;93847.75;;;3.20;80.17
8334;BME280;4204;43.004;23.052;2024-02-14T06:24:42;93857.13;;;3.19;78.82
8334;BME280;4204;43.004;23.052;2024-02-14T06:27:07;93856.16;;;3.04;80.51
8334;BME280;4204;43.004;23.052;2024-02-14T06:29:32;93868.91;;;3.12;79.15
8334;BME280;4204;43.004;23.052;2024-02-14T06:31:58;93871.94;;;3.16;79.22
8334;BME280;4204;43.004;23.052;2024-02-14T06:34:23;93866.66;;;3.09;78.80
8334;BME280;4204;43.004;23.052;2024-02-14T06:36:51;93867.78;;;3.15;79.72
8334;BME280;4204;43.004;23.052;2024-02-14T06:39:17;93864.75;;;3.03;79.57
8334;BME280;4204;43.004;23.052;2024-02-14T06:41:42;93871.75;;;3.09;79.87
8334;BME280;4204;43.004;23.052;2024-02-14T06:44:10;93871.75;;;3.09;80.26
8334;BME280;4204;43.004;23.052;2024-02-14T06:46:35;93867.31;;;3.11;79.47
8334;BME280;4204;43.004;23.052;2024-02-14T06:49:03;93875.13;;;3.18;79.89
8334;BME280;4204;43.004;23.052;2024-02-14T06:51:28;93889.47;;;3.27;80.17
8334;BME280;4204;43.004;23.052;2024-02-14T06:53:56;93877.69;;;3.42;80.61
8334;BME280;4204;43.004;23.052;2024-02-14T06:56:22;93878.16;;;3.38;79.39
8334;BME280;4204;43.004;23.052;2024-02-14T06:58:47;93886.44;;;3.40;79.91
8334;BME280;4204;43.004;23.052;2024-02-14T07:01:18;93883.91;;;3.32;79.26
8334;BME280;4204;43.004;23.052;2024-02-14T07:03:47;93892.00;;;3.35;79.85
8334;BME280;4204;43.004;23.052;2024-02-14T07:06:13;93895.50;;;3.26;79.37
8334;BME280;4204;43.004;23.052;2024-02-14T07:08:40;93906.31;;;3.12;78.63
8334;BME280;4204;43.004;23.052;2024-02-14T07:11:06;93900.41;;;3.11;78.93
8334;BME280;4204;43.004;23.052;2024-02-14T07:13:31;93913.00;;;3.13;79.77
8334;BME280;4204;43.004;23.052;2024-02-14T07:15:57;93905.81;;;3.08;79.28
8334;BME280;4204;43.004;23.052;2024-02-14T07:18:22;93922.38;;;3.12;79.54
8334;BME280;4204;43.004;23.052;2024-02-14T07:20:48;93928.75;;;3.16;79.10
8334;BME280;4204;43.004;23.052;2024-02-14T07:23:13;93917.28;;;3.04;78.14
8334;BME280;4204;43.004;23.052;2024-02-14T07:25:39;93916.63;;;3.02;79.58
8334;BME280;4204;43.004;23.052;2024-02-14T07:28:04;93923.78;;;2.99;79.54
8334;BME280;4204;43.004;23.052;2024-02-14T07:30:30;93928.09;;;3.06;80.52
8334;BME280;4204;43.004;23.052;2024-02-14T07:32:55;93933.50;;;3.03;78.81
8334;BME280;4204;43.004;23.052;2024-02-14T07:35:21;93933.28;;;2.97;79.92
8334;BME280;4204;43.004;23.052;2024-02-14T07:37:47;93942.41;;;2.99;78.64
8334;BME280;4204;43.004;23.052;2024-02-14T07:40:13;93937.59;;;2.96;78.93
8334;BME280;4204;43.004;23.052;2024-02-14T07:42:39;93947.50;;;2.99;79.91
8334;BME280;4204;43.004;23.052;2024-02-14T07:45:05;93887.50;;;2.54;79.12
8334;BME280;4204;43.004;23.052;2024-02-14T07:47:30;93949.25;;;2.99;80.19
8334;BME280;4204;43.004;23.052;2024-02-14T07:49:56;93951.13;;;2.97;80.69
8334;BME280;4204;43.004;23.052;2024-02-14T07:52:22;93943.63;;;2.95;79.73
8334;BME280;4204;43.004;23.052;2024-02-14T07:54:54;93944.28;;;2.97;80.44
8334;BME280;4204;43.004;23.052;2024-02-14T07:57:22;93946.50;;;2.92;79.29
8334;BME280;4204;43.004;23.052;2024-02-14T07:59:48;93948.13;;;3.01;79.95
8334;BME280;4204;43.004;23.052;2024-02-14T08:02:13;93954.47;;;2.97;80.05
8334;BME280;4204;43.004;23.052;2024-02-14T08:04:39;93958.91;;;2.95;79.53
8334;BME280;4204;43.004;23.052;2024-02-14T08:07:04;93946.03;;;2.97;80.26
8334;BME280;4204;43.004;23.052;2024-02-14T08:09:30;93935.00;;;2.80;79.47
8334;BME280;4204;43.004;23.052;2024-02-14T08:11:55;93946.97;;;2.96;78.38
8334;BME280;4204;43.004;23.052;2024-02-14T08:14:21;93952.88;;;2.96;79.91
8334;BME280;4204;43.004;23.052;2024-02-14T08:16:47;93946.50;;;2.92;80.25
8334;BME280;4204;43.004;23.052;2024-02-14T08:19:12;93957.69;;;2.99;79.53
8334;BME280;4204;43.004;23.052;2024-02-14T08:21:38;93947.44;;;2.91;79.19
8334;BME280;4204;43.004;23.052;2024-02-14T08:24:03;93940.59;;;2.92;79.90
8334;BME280;4204;43.004;23.052;2024-02-14T08:26:30;93935.16;;;2.86;79.72
8334;BME280;4204;43.004;23.052;2024-02-14T08:28:56;93948.09;;;2.93;79.40
8334;BME280;4204;43.004;23.052;2024-02-14T08:31:23;93952.59;;;2.99;79.20
8334;BME280;4204;43.004;23.052;2024-02-14T08:33:49;93957.69;;;2.99;80.16
8334;BME280;4204;43.004;23.052;2024-02-14T08:36:14;93960.88;;;3.01;79.19
8334;BME280;4204;43.004;23.052;2024-02-14T08:38:42;93946.50;;;2.92;78.99
8334;BME280;4204;43.004;23.052;2024-02-14T08:41:07;93958.47;;;3.00;78.54
8334;BME280;4204;43.004;23.052;2024-02-14T08:43:33;93955.78;;;3.01;79.82
8334;BME280;4204;43.004;23.052;2024-02-14T08:45:59;93959.44;;;2.99;80.26
8334;BME280;4204;43.004;23.052;2024-02-14T08:48:24;93968.69;;;3.08;78.83
8334;BME280;4204;43.004;23.052;2024-02-14T08:50:52;93959.16;;;3.10;78.28
8334;BME280;4204;43.004;23.052;2024-02-14T08:53:18;93964.91;;;3.20;78.45
8334;BME280;4204;43.004;23.052;2024-02-14T08:55:43;93964.13;;;3.19;78.90
8334;BME280;4204;43.004;23.052;2024-02-14T08:58:09;93974.97;;;3.30;79.12
8334;BME280;4204;43.004;23.052;2024-02-14T09:00:38;93973.69;;;3.34;78.75
8334;BME280;4204;43.004;23.052;2024-02-14T09:03:05;93988.69;;;3.37;78.86
8334;BME280;4204;43.004;23.052;2024-02-14T09:05:30;93987.09;;;3.36;76.53
8334;BME280;4204;43.004;23.052;2024-02-14T09:07:56;93968.91;;;3.31;76.81
8334;BME280;4204;43.004;23.052;2024-02-14T09:10:24;93990.28;;;3.46;77.14
8334;BME280;4204;43.004;23.052;2024-02-14T09:12:49;93984.72;;;3.42;76.26
8334;BME280;4204;43.004;23.052;2024-02-14T09:15:15;93997.31;;;3.52;78.99
8334;BME280;4204;43.004;23.052;2024-02-14T09:17:41;93990.94;;;3.56;77.97
8334;BME280;4204;43.004;23.052;2024-02-14T09:20:09;93991.28;;;3.61;75.81
8334;BME280;4204;43.004;23.052;2024-02-14T09:22:35;93979.47;;;3.52;76.01
8334;BME280;4204;43.004;23.052;2024-02-14T09:25:01;93976.44;;;3.48;76.65
8334;BME280;4204;43.004;23.052;2024-02-14T09:27:30;93988.06;;;3.51;75.95
8334;BME280;4204;43.004;23.052;2024-02-14T09:29:55;93992.06;;;3.54;74.81
8334;BME280;4204;43.004;23.052;2024-02-14T09:32:20;93995.25;;;3.64;75.13
8334;BME280;4204;43.004;23.052;2024-02-14T09:34:46;94001.00;;;3.66;75.16
8334;BME280;4204;43.004;23.052;2024-02-14T09:37:11;94001.31;;;3.63;77.21
8334;BME280;4204;43.004;23.052;2024-02-14T09:39:37;93981.38;;;3.58;75.24
8334;BME280;4204;43.004;23.052;2024-02-14T09:42:06;93986.06;;;3.79;76.03
8334;BME280;4204;43.004;23.052;2024-02-14T09:44:34;93992.28;;;3.85;75.33
8334;BME280;4204;43.004;23.052;2024-02-14T09:47:00;93978.09;;;3.90;75.15
8334;BME280;4204;43.004;23.052;2024-02-14T09:49:28;93973.16;;;3.97;76.02
8334;BME280;4204;43.004;23.052;2024-02-14T09:51:56;93974.13;;;4.04;74.94
8334;BME280;4204;43.004;23.052;2024-02-14T09:54:23;93988.63;;;4.20;75.92
8334;BME280;4204;43.004;23.052;2024-02-14T09:56:50;93979.84;;;4.30;74.44
8334;BME280;4204;43.004;23.052;2024-02-14T09:59:19;93985.88;;;4.45;74.39
8334;BME280;4204;43.004;23.052;2024-02-14T10:01:49;93980.31;;;4.50;74.22
8334;BME280;4204;43.004;23.052;2024-02-14T10:04:16;93970.59;;;4.54;72.60
8334;BME280;4204;43.004;23.052;2024-02-14T10:06:47;93971.69;;;4.51;71.87
8334;BME280;4204;43.004;23.052;2024-02-14T10:09:21;93985.25;;;4.60;73.30
8334;BME280;4204;43.004;23.052;2024-02-14T10:11:48;93987.66;;;4.53;71.02
8334;BME280;4204;43.004;23.052;2024-02-14T10:14:15;93981.72;;;4.44;70.88
8334;BME280;4204;43.004;23.052;2024-02-14T10:16:41;93980.94;;;4.44;71.71
8334;BME280;4204;43.004;23.052;2024-02-14T10:19:17;93990.03;;;4.55;71.71
8334;BME280;4204;43.004;23.052;2024-02-14T10:21:55;93974.75;;;4.46;71.42
8334;BME280;4204;43.004;23.052;2024-02-14T10:24:21;93975.84;;;4.52;71.63
8334;BME280;4204;43.004;23.052;2024-02-14T10:26:47;93976.94;;;4.58;70.81
8334;BME280;4204;43.004;23.052;2024-02-14T10:29:13;93972.19;;;4.55;70.71
8334;BME280;4204;43.004;23.052;2024-02-14T10:31:43;93953.81;;;4.43;71.95
8334;BME280;4204;43.004;23.052;2024-02-14T10:34:08;93972.94;;;4.63;70.08
8334;BME280;4204;43.004;23.052;2024-02-14T10:36:35;93961.31;;;4.61;71.18
8334;BME280;4204;43.004;23.052;2024-02-14T10:39:01;93980.13;;;4.68;71.44
8334;BME280;4204;43.004;23.052;2024-02-14T10:41:30;93981.72;;;4.69;71.32
8334;BME280;4204;43.004;23.052;2024-02-14T10:44:04;93969.91;;;4.68;70.82
8334;BME280;4204;43.004;23.052;2024-02-14T10:46:32;93980.91;;;4.76;69.08
8334;BME280;4204;43.004;23.052;2024-02-14T10:49:04;93967.34;;;4.68;69.12
8334;BME280;4204;43.004;23.052;2024-02-14T10:51:34;93965.13;;;4.65;71.74
8334;BME280;4204;43.004;23.052;2024-02-14T10:54:12;93981.22;;;4.73;70.07
8334;BME280;4204;43.004;23.052;2024-02-14T10:56:42;93975.31;;;4.73;70.10
8334;BME280;4204;43.004;23.052;2024-02-14T10:59:09;93970.34;;;4.79;69.73
8334;BME280;4204;43.004;23.052;2024-02-14T11:01:37;93982.63;;;4.84;71.08
8334;BME280;4204;43.004;23.052;2024-02-14T11:04:04;93972.41;;;4.84;68.93
8334;BME280;4204;43.004;23.052;2024-02-14T11:06:30;93977.03;;;4.89;68.90
8334;BME280;4204;43.004;23.052;2024-02-14T11:09:03;93981.94;;;4.98;69.38
8334;BME280;4204;43.004;23.052;2024-02-14T11:11:33;93976.19;;;4.96;67.15
8334;BME280;4204;43.004;23.052;2024-02-14T11:13:58;93983.38;;;5.01;70.88
8334;BME280;4204;43.004;23.052;2024-02-14T11:16:27;93962.31;;;4.99;68.41
8334;BME280;4204;43.004;23.052;2024-02-14T11:19:05;93978.06;;;5.10;69.31
8334;BME280;4204;43.004;23.052;2024-02-14T11:21:35;93973.13;;;5.09;69.18
8334;BME280;4204;43.004;23.052;2024-02-14T11:24:04;93975.34;;;5.12;68.24
8334;BME280;4204;43.004;23.052;2024-02-14T11:26:38;93977.72;;;5.14;68.16
8334;BME280;4204;43.004;23.052;2024-02-14T11:29:03;93977.41;;;5.17;68.71
8334;BME280;4204;43.004;23.052;2024-02-14T11:31:33;93979.78;;;5.18;69.01
8334;BME280;4204;43.004;23.052;2024-02-14T11:34:04;93975.47;;;5.19;68.73
8334;BME280;4204;43.004;23.052;2024-02-14T11:36:32;93973.88;;;5.18;70.38
8334;BME280;4204;43.004;23.052;2024-02-14T11:38:58;93969.72;;;5.25;67.81
8334;BME280;4204;43.004;23.052;2024-02-14T11:41:24;93968.94;;;5.24;67.31
8334;BME280;4204;43.004;23.052;2024-02-14T11:43:52;93980.91;;;5.24;67.85
8334;BME280;4204;43.004;23.052;2024-02-14T11:46:18;93973.69;;;5.27;68.56
8334;BME280;4204;43.004;23.052;2024-02-14T11:48:43;93964.75;;;5.31;67.96
8334;BME280;4204;43.004;23.052;2024-02-14T11:51:11;93989.78;;;5.36;68.03
8334;BME280;4204;43.004;23.052;2024-02-14T11:53:36;93969.56;;;5.26;66.52
8334;BME280;4204;43.004;23.052;2024-02-14T11:56:02;93980.91;;;5.24;67.67
8334;BME280;4204;43.004;23.052;2024-02-14T11:58:28;93988.25;;;5.27;68.33
8334;BME280;4204;43.004;23.052;2024-02-14T12:00:53;93971.66;;;5.23;67.81
8334;BME280;4204;43.004;23.052;2024-02-14T12:03:22;93976.88;;;5.29;67.15
8334;BME280;4204;43.004;23.052;2024-02-14T12:05:49;93966.66;;;5.29;67.38
8334;BME280;4204;43.004;23.052;2024-02-14T12:08:16;93966.00;;;5.35;66.80
8334;BME280;4204;43.004;23.052;2024-02-14T12:10:44;93971.22;;;5.42;66.28
8334;BME280;4204;43.004;23.052;2024-02-14T12:13:16;93972.19;;;5.41;67.41
8334;BME280;4204;43.004;23.052;2024-02-14T12:15:45;93970.44;;;5.41;66.75
8334;BME280;4204;43.004;23.052;2024-02-14T12:18:11;93969.34;;;5.36;66.06
8334;BME280;4204;43.004;23.052;2024-02-14T12:20:41;93976.34;;;5.42;67.93
8334;BME280;4204;43.004;23.052;2024-02-14T12:23:07;93974.75;;;5.41;66.75
8334;BME280;4204;43.004;23.052;2024-02-14T12:25:33;93978.28;;;5.40;66.83
8334;BME280;4204;43.004;23.052;2024-02-14T12:27:59;93970.44;;;5.41;66.86
8334;BME280;4204;43.004;23.052;2024-02-14T12:30:46;93967.53;;;5.45;66.89
8334;BME280;4204;43.004;23.052;2024-02-14T12:33:15;93960.66;;;5.45;66.04
8334;BME280;4204;43.004;23.052;2024-02-14T12:35:44;93963.84;;;5.47;66.71
8334;BME280;4204;43.004;23.052;2024-02-14T12:38:11;93956.34;;;5.46;66.48
8334;BME280;4204;43.004;23.052;2024-02-14T12:40:38;93962.88;;;5.48;66.08
8334;BME280;4204;43.004;23.052;2024-02-14T12:43:15;93957.94;;;5.47;64.84
8334;BME280;4204;43.004;23.052;2024-02-14T12:45:42;93962.88;;;5.48;64.93
8334;BME280;4204;43.004;23.052;2024-02-14T12:48:08;93971.00;;;5.52;64.91
8334;BME280;4204;43.004;23.052;2024-02-14T12:50:39;93956.84;;;5.41;64.28
8334;BME280;4204;43.004;23.052;2024-02-14T12:53:13;93951.41;;;5.44;64.21
8334;BME280;4204;43.004;23.052;2024-02-14T12:55:38;93925.66;;;5.23;64.30
8334;BME280;4204;43.004;23.052;2024-02-14T12:58:04;93898.56;;;5.05;63.83
8334;BME280;4204;43.004;23.052;2024-02-14T13:00:30;93975.66;;;5.48;64.41
8334;BME280;4204;43.004;23.052;2024-02-14T13:02:57;93967.06;;;5.41;64.30
8334;BME280;4204;43.004;23.052;2024-02-14T13:05:23;93976.91;;;5.52;63.48
8334;BME280;4204;43.004;23.052;2024-02-14T13:07:51;93968.78;;;5.49;63.43
8334;BME280;4204;43.004;23.052;2024-02-14T13:10:16;93969.09;;;5.54;62.75
8334;BME280;4204;43.004;23.052;2024-02-14T13:12:41;93967.66;;;5.51;63.67
8334;BME280;4204;43.004;23.052;2024-02-14T13:15:09;93961.41;;;5.54;62.66
8334;BME280;4204;43.004;23.052;2024-02-14T13:17:37;93970.69;;;5.55;63.53
8334;BME280;4204;43.004;23.052;2024-02-14T13:20:02;93971.94;;;5.59;63.55